createdAt,value
2022-10-17T00:02:48.315Z,14.03
2022-10-17T00:05:52.471Z,13.99
2022-10-17T00:08:55.202Z,13.97
2022-10-17T00:11:57.909Z,13.89
2022-10-17T00:15:00.580Z,13.89
2022-10-17T00:18:03.408Z,13.89
2022-10-17T00:21:07.487Z,13.94
2022-10-17T00:24:10.114Z,13.89
2022-10-17T00:27:12.798Z,13.94
2022-10-17T00:30:16.478Z,13.97
2022-10-17T00:33:19.316Z,14.00
2022-10-17T00:36:25.254Z,13.97
2022-10-17T00:39:27.876Z,13.96
2022-10-17T00:42:31.034Z,13.86
2022-10-17T00:45:33.983Z,13.74
2022-10-17T00:48:36.695Z,13.72
2022-10-17T00:51:44.772Z,13.67
2022-10-17T00:54:50.958Z,13.65
2022-10-17T00:57:54.048Z,13.69
2022-10-17T01:00:56.798Z,13.69
2022-10-17T01:03:59.511Z,13.61
2022-10-17T01:07:03.597Z,13.61
2022-10-17T01:10:07.597Z,13.64
2022-10-17T01:13:14.990Z,13.68
2022-10-17T01:16:21.405Z,13.70
2022-10-17T01:19:42.121Z,13.64
2022-10-17T01:22:48.847Z,13.64
2022-10-17T01:25:56.735Z,13.69
2022-10-17T01:29:22.132Z,13.74
2022-10-17T01:32:30.405Z,13.81
2022-10-17T01:35:38.685Z,13.76
2022-10-17T01:38:46.883Z,13.74
2022-10-17T01:41:54.142Z,13.69
2022-10-17T01:44:59.661Z,13.58
2022-10-17T01:48:08.902Z,13.51
2022-10-17T01:51:15.057Z,13.41
2022-10-17T01:54:22.130Z,13.44
2022-10-17T01:57:29.743Z,13.38
2022-10-17T02:00:33.614Z,13.29
2022-10-17T02:03:37.908Z,13.31
2022-10-17T02:06:40.618Z,13.37
2022-10-17T02:09:43.415Z,13.47
2022-10-17T02:12:51.239Z,13.43
2022-10-17T02:16:08.175Z,13.33
2022-10-17T02:19:34.264Z,13.28
2022-10-17T02:22:40.581Z,13.22
2022-10-17T02:25:46.540Z,13.23
2022-10-17T02:28:53.667Z,13.11
2022-10-17T02:31:59.486Z,13.07
2022-10-17T02:35:05.192Z,13.14
2022-10-17T02:38:09.724Z,13.20
2022-10-17T02:41:15.771Z,13.32
2022-10-17T02:44:18.942Z,13.30
2022-10-17T02:47:24.674Z,13.22
2022-10-17T02:50:35.014Z,13.27
2022-10-17T02:53:41.636Z,13.31
2022-10-17T02:56:49.586Z,13.20
2022-10-17T02:59:52.521Z,13.10
2022-10-17T03:02:56.066Z,13.00
2022-10-17T03:05:59.897Z,12.95
2022-10-17T03:09:02.725Z,12.98
2022-10-17T03:12:06.186Z,12.97
2022-10-17T03:15:09.931Z,12.93
2022-10-17T03:18:12.672Z,12.94
2022-10-17T03:21:16.662Z,12.99
2022-10-17T03:24:19.416Z,13.01
2022-10-17T03:27:22.277Z,13.10
2022-10-17T03:30:24.901Z,13.12
2022-10-17T03:33:27.769Z,13.17
2022-10-17T03:36:31.736Z,13.13
2022-10-17T03:39:34.348Z,13.15
2022-10-17T03:42:36.975Z,13.20
2022-10-17T03:45:39.707Z,13.12
2022-10-17T03:48:42.599Z,13.00
2022-10-17T03:51:46.708Z,12.90
2022-10-17T03:54:50.735Z,12.80
2022-10-17T03:57:53.465Z,12.74
2022-10-17T04:00:56.103Z,12.70
2022-10-17T04:03:59.042Z,12.77
2022-10-17T04:07:03.072Z,12.83
2022-10-17T04:10:07.000Z,12.88
2022-10-17T04:13:09.719Z,12.84
2022-10-17T04:16:15.164Z,12.84
2022-10-17T04:19:17.798Z,12.90
2022-10-17T04:22:21.875Z,12.89
2022-10-17T04:25:24.502Z,12.85
2022-10-17T04:28:28.243Z,12.79
2022-10-17T04:31:31.042Z,12.71
2022-10-17T04:34:33.918Z,12.69
2022-10-17T04:37:38.081Z,12.62
2022-10-17T04:40:40.712Z,12.67
2022-10-17T04:43:45.655Z,12.70
2022-10-17T04:46:51.328Z,12.65
2022-10-17T04:49:54.175Z,12.65
2022-10-17T04:52:58.205Z,12.72
2022-10-17T04:56:00.993Z,12.81
2022-10-17T04:59:05.316Z,12.94
2022-10-17T05:02:08.053Z,13.01
2022-10-17T05:05:11.249Z,13.05
2022-10-17T05:08:15.403Z,13.08
2022-10-17T05:11:19.726Z,13.12
2022-10-17T05:14:22.509Z,13.11
2022-10-17T05:17:25.430Z,13.06
2022-10-17T05:20:28.677Z,12.99
2022-10-17T05:23:32.845Z,12.96
2022-10-17T05:26:35.670Z,12.98
2022-10-17T05:29:39.205Z,12.98
2022-10-17T05:32:41.734Z,13.00
2022-10-17T05:35:44.417Z,12.99
2022-10-17T05:38:51.574Z,12.95
2022-10-17T05:41:54.379Z,12.92
2022-10-17T05:44:57.009Z,12.90
2022-10-17T05:47:59.725Z,12.88
2022-10-17T05:51:03.708Z,12.88
2022-10-17T05:54:08.168Z,12.95
2022-10-17T05:57:10.919Z,13.01
2022-10-17T06:00:14.894Z,13.01
2022-10-17T06:03:17.708Z,13.01
2022-10-17T06:06:20.672Z,12.95
2022-10-17T06:09:25.203Z,12.91
2022-10-17T06:12:28.077Z,12.90
2022-10-17T06:15:31.048Z,12.93
2022-10-17T06:18:34.047Z,12.94
2022-10-17T06:21:38.640Z,12.93
2022-10-17T06:24:43.359Z,12.90
2022-10-17T06:27:46.099Z,12.91
2022-10-17T06:30:48.858Z,12.91
2022-10-17T06:33:51.599Z,12.98
2022-10-17T06:36:54.652Z,13.07
2022-10-17T06:39:58.769Z,13.29
2022-10-17T06:43:01.467Z,13.38
2022-10-17T06:46:04.580Z,13.41
2022-10-17T06:49:07.979Z,13.41
2022-10-17T06:52:11.550Z,13.49
2022-10-17T06:55:18.271Z,13.58
2022-10-17T06:58:24.803Z,13.71
2022-10-17T07:01:28.597Z,13.83
2022-10-17T07:04:31.403Z,13.91
2022-10-17T07:07:34.113Z,14.07
2022-10-17T07:10:38.569Z,14.17
2022-10-17T07:13:41.378Z,14.30
2022-10-17T07:16:44.212Z,14.49
2022-10-17T07:19:47.025Z,14.58
2022-10-17T07:22:49.755Z,14.78
2022-10-17T07:25:54.471Z,14.96
2022-10-17T07:28:57.430Z,15.10
2022-10-17T07:32:00.093Z,15.25
2022-10-17T07:35:02.816Z,15.32
2022-10-17T07:38:05.547Z,15.48
2022-10-17T07:41:10.734Z,15.69
2022-10-17T07:44:15.268Z,15.77
2022-10-17T07:47:18.095Z,15.93
2022-10-17T07:50:20.825Z,16.03
2022-10-17T07:53:23.624Z,16.17
2022-10-17T07:56:29.532Z,16.35
2022-10-17T07:59:33.900Z,16.57
2022-10-17T08:02:37.019Z,16.72
2022-10-17T08:05:39.754Z,16.91
2022-10-17T08:08:42.917Z,17.14
2022-10-17T08:11:47.260Z,17.33
2022-10-17T08:14:50.203Z,17.38
2022-10-17T08:17:55.578Z,17.64
2022-10-17T08:21:00.489Z,17.86
2022-10-17T08:24:03.937Z,18.02
2022-10-17T08:27:11.685Z,18.21
2022-10-17T08:30:14.536Z,18.41
2022-10-17T08:33:17.189Z,18.47
2022-10-17T08:36:21.440Z,18.48
2022-10-17T08:39:24.104Z,18.56
2022-10-17T08:42:41.440Z,18.85
2022-10-17T08:45:47.865Z,19.05
2022-10-17T08:48:52.759Z,19.33
2022-10-17T08:52:06.029Z,19.56
2022-10-17T08:55:16.056Z,19.86
2022-10-17T08:58:22.044Z,19.99
2022-10-17T09:01:34.475Z,20.19
2022-10-17T09:04:57.433Z,20.29
2022-10-17T09:08:08.338Z,20.42
2022-10-17T09:11:18.409Z,20.70
2022-10-17T09:14:39.372Z,20.69
2022-10-17T09:17:49.671Z,20.85
2022-10-17T09:20:53.718Z,20.94
2022-10-17T09:24:09.326Z,21.17
2022-10-17T09:27:19.583Z,21.22
2022-10-17T09:30:47.205Z,21.17
2022-10-17T09:33:55.356Z,21.15
2022-10-17T09:36:59.724Z,21.21
2022-10-17T09:40:02.492Z,21.31
2022-10-17T09:43:08.240Z,21.40
2022-10-17T09:46:18.574Z,21.48
2022-10-17T09:49:24.371Z,21.69
2022-10-17T09:52:30.350Z,21.99
2022-10-17T09:55:39.939Z,21.95
2022-10-17T09:58:44.019Z,22.08
2022-10-17T10:01:48.305Z,22.20
2022-10-17T10:05:05.539Z,22.35
2022-10-17T10:08:15.598Z,22.41
2022-10-17T10:11:19.253Z,22.54
2022-10-17T10:14:24.017Z,22.70
2022-10-17T10:17:37.012Z,22.63
2022-10-17T10:20:41.088Z,22.79
2022-10-17T10:23:45.255Z,22.88
2022-10-17T10:26:49.383Z,23.11
2022-10-17T10:29:53.461Z,23.24
2022-10-17T10:32:58.950Z,23.26
2022-10-17T10:36:03.518Z,23.45
2022-10-17T10:39:06.516Z,23.62
2022-10-17T10:42:20.084Z,23.70
2022-10-17T10:48:56.478Z,23.72
2022-10-17T10:51:59.752Z,23.88
2022-10-17T10:55:11.503Z,23.97
2022-10-17T10:58:23.025Z,24.15
2022-10-17T11:01:31.069Z,24.19
2022-10-17T11:04:38.923Z,24.32
2022-10-17T11:07:45.269Z,24.44
2022-10-17T11:10:58.711Z,24.51
2022-10-17T11:14:04.875Z,24.69
2022-10-17T11:17:14.169Z,24.85
2022-10-17T11:20:23.304Z,24.97
2022-10-17T11:23:30.390Z,25.21
2022-10-17T11:26:36.653Z,25.29
2022-10-17T11:29:40.807Z,25.42
2022-10-17T11:32:46.335Z,25.65
2022-10-17T11:35:53.300Z,25.66
2022-10-17T11:38:59.744Z,25.64
2022-10-17T11:42:06.981Z,25.60
2022-10-17T11:45:12.886Z,25.52
2022-10-17T11:48:20.406Z,25.52
2022-10-17T11:54:52.006Z,26.04
2022-10-17T11:58:17.183Z,26.36
2022-10-17T12:01:26.080Z,26.31
2022-10-17T12:04:44.825Z,26.40
2022-10-17T12:07:56.876Z,26.52
2022-10-17T12:11:02.524Z,26.34
2022-10-17T12:14:45.203Z,26.39
2022-10-17T12:17:48.653Z,26.64
2022-10-17T12:20:57.079Z,26.99
2022-10-17T12:24:01.708Z,26.87
2022-10-17T12:27:24.432Z,26.71
2022-10-17T12:30:28.193Z,26.77
2022-10-17T12:33:33.974Z,27.10
2022-10-17T12:36:40.660Z,26.83
2022-10-17T12:39:44.756Z,26.95
2022-10-17T12:42:51.141Z,28.14
2022-10-17T12:45:54.728Z,32.19
2022-10-17T12:49:16.043Z,36.92
2022-10-17T12:52:27.163Z,35.24
2022-10-17T12:55:31.639Z,38.86
2022-10-17T12:58:35.947Z,41.20
2022-10-17T13:01:40.378Z,39.80
2022-10-17T13:04:45.198Z,35.83
2022-10-17T13:07:49.733Z,36.72
2022-10-17T13:10:54.663Z,38.01
2022-10-17T13:14:00.384Z,38.30
2022-10-17T13:17:08.245Z,36.99
2022-10-17T13:20:25.567Z,38.96
2022-10-17T13:23:33.955Z,36.08
2022-10-17T13:26:38.119Z,36.65
2022-10-17T13:29:45.507Z,37.26
2022-10-17T13:32:48.614Z,37.93
2022-10-17T13:36:06.937Z,40.29
2022-10-17T13:39:15.069Z,38.50
2022-10-17T13:42:24.640Z,41.08
2022-10-17T13:45:30.715Z,41.98
2022-10-17T13:48:36.371Z,39.23
2022-10-17T13:51:44.469Z,40.79
2022-10-17T13:54:48.667Z,39.76
2022-10-17T13:57:53.016Z,41.03
2022-10-17T14:00:56.693Z,39.21
2022-10-17T14:04:09.440Z,39.56
2022-10-17T14:07:25.678Z,38.03
2022-10-17T14:10:32.522Z,41.09
2022-10-17T14:13:36.597Z,40.50
2022-10-17T14:16:41.088Z,41.95
2022-10-17T14:19:48.370Z,36.96
2022-10-17T14:23:20.982Z,32.76
2022-10-17T14:26:19.921Z,31.11
2022-10-17T14:29:26.200Z,31.50
2022-10-17T14:32:29.664Z,35.99
2022-10-17T14:35:42.015Z,35.32
2022-10-17T14:38:46.669Z,37.40
2022-10-17T14:41:49.539Z,39.36
2022-10-17T14:44:55.802Z,40.81
2022-10-17T14:48:03.551Z,41.69
2022-10-17T14:51:07.915Z,42.09
2022-10-17T14:54:21.284Z,42.96
2022-10-17T14:57:27.333Z,42.80
2022-10-17T15:00:31.587Z,42.45
2022-10-17T15:03:34.805Z,42.19
2022-10-17T15:06:38.076Z,41.73
2022-10-17T15:09:41.036Z,39.86
2022-10-17T15:12:52.023Z,34.66
2022-10-17T15:16:03.136Z,33.18
2022-10-17T15:19:05.944Z,32.87
2022-10-17T15:22:08.749Z,32.37
2022-10-17T15:25:12.344Z,32.39
2022-10-17T15:28:15.215Z,32.31
2022-10-17T15:31:21.122Z,31.48
2022-10-17T15:34:23.821Z,29.41
2022-10-17T15:37:26.915Z,27.89
2022-10-17T15:40:31.810Z,27.11
2022-10-17T15:43:34.458Z,26.65
2022-10-17T15:46:40.954Z,26.14
2022-10-17T15:49:43.634Z,25.75
2022-10-17T15:52:47.044Z,25.25
2022-10-17T15:55:50.970Z,24.91
2022-10-17T15:58:53.817Z,24.52
2022-10-17T16:01:57.833Z,24.09
2022-10-17T16:05:00.696Z,23.74
2022-10-17T16:08:03.225Z,23.35
2022-10-17T16:11:05.995Z,23.06
2022-10-17T16:14:11.844Z,22.76
2022-10-17T16:17:17.655Z,22.47
2022-10-17T16:20:20.674Z,22.22
2022-10-17T16:23:23.247Z,21.93
2022-10-17T16:26:26.072Z,21.66
2022-10-17T16:29:28.786Z,21.47
2022-10-17T16:32:33.075Z,21.24
2022-10-17T16:35:37.536Z,20.93
2022-10-17T16:38:40.571Z,20.71
2022-10-17T16:41:43.533Z,20.57
2022-10-17T16:44:46.166Z,20.44
2022-10-17T16:47:55.388Z,20.24
2022-10-17T16:50:58.220Z,20.12
2022-10-17T16:54:01.140Z,19.88
2022-10-17T16:57:04.136Z,19.93
2022-10-17T17:00:08.937Z,19.87
2022-10-17T17:03:13.263Z,19.75
2022-10-17T17:06:19.133Z,19.63
2022-10-17T17:09:22.383Z,19.50
2022-10-17T17:12:25.663Z,19.48
2022-10-17T17:15:28.334Z,19.42
2022-10-17T17:18:32.525Z,19.37
2022-10-17T17:21:35.909Z,19.27
2022-10-17T17:24:38.914Z,19.06
2022-10-17T17:27:41.816Z,19.03
2022-10-17T17:30:44.485Z,18.96
2022-10-17T17:33:49.174Z,19.00
2022-10-17T17:36:52.102Z,18.91
2022-10-17T17:39:54.811Z,18.83
2022-10-17T17:42:57.609Z,18.73
2022-10-17T17:46:03.802Z,18.64
2022-10-17T17:49:07.933Z,18.62
2022-10-17T17:52:10.659Z,18.56
2022-10-17T17:55:13.479Z,18.57
2022-10-17T17:58:16.374Z,18.51
2022-10-17T18:01:22.399Z,18.48
2022-10-17T18:04:28.154Z,18.41
2022-10-17T18:07:31.238Z,18.36
2022-10-17T18:10:34.123Z,18.36
2022-10-17T18:13:36.987Z,18.24
2022-10-17T18:16:40.471Z,18.07
2022-10-17T18:19:44.986Z,18.07
2022-10-17T18:22:47.766Z,18.15
2022-10-17T18:25:57.230Z,18.17
2022-10-17T18:29:00.103Z,18.03
2022-10-17T18:32:03.147Z,17.91
2022-10-17T18:35:07.957Z,18.01
2022-10-17T18:38:10.666Z,17.99
2022-10-17T18:41:15.052Z,17.99
2022-10-17T18:44:17.984Z,17.85
2022-10-17T18:47:20.758Z,17.81
2022-10-17T18:50:25.894Z,17.72
2022-10-17T18:53:29.337Z,17.63
2022-10-17T18:56:32.657Z,17.55
2022-10-17T18:59:35.269Z,17.54
2022-10-17T19:02:38.179Z,17.52
2022-10-17T19:05:45.116Z,17.40
2022-10-17T19:08:48.588Z,17.43
2022-10-17T19:11:51.504Z,17.41
2022-10-17T19:14:56.422Z,17.35
2022-10-17T19:17:59.290Z,17.26
2022-10-17T19:21:07.854Z,17.18
2022-10-17T19:24:14.285Z,17.10
2022-10-17T19:27:17.010Z,17.16
2022-10-17T19:30:20.125Z,17.17
2022-10-17T19:33:22.784Z,17.16
2022-10-17T19:36:32.262Z,17.08
2022-10-17T19:39:36.494Z,16.98
2022-10-17T19:42:39.835Z,16.91
2022-10-17T19:45:42.403Z,16.79
2022-10-17T19:48:45.632Z,16.77
2022-10-17T19:51:49.743Z,16.79
2022-10-17T19:54:52.554Z,16.71
2022-10-17T19:57:55.111Z,16.63
2022-10-17T20:01:01.113Z,16.56
2022-10-17T20:04:03.893Z,16.51
2022-10-17T20:07:08.517Z,16.55
2022-10-17T20:10:11.181Z,16.53
2022-10-17T20:13:14.115Z,16.40
2022-10-17T20:16:20.502Z,16.37
2022-10-17T20:19:23.246Z,16.27
2022-10-17T20:22:27.410Z,16.32
2022-10-17T20:25:30.242Z,16.33
2022-10-17T20:28:33.578Z,16.46
2022-10-17T20:31:36.145Z,16.43
2022-10-17T20:34:39.347Z,16.34
2022-10-17T20:37:43.335Z,16.16
2022-10-17T20:40:46.422Z,16.13
2022-10-17T20:43:51.373Z,16.11
2022-10-17T20:47:01.697Z,16.07
2022-10-17T20:50:05.375Z,16.01
2022-10-17T20:53:34.818Z,15.90
2022-10-17T20:56:33.271Z,16.00
2022-10-17T20:59:36.153Z,16.07
2022-10-17T21:02:38.900Z,16.07
2022-10-17T21:05:41.859Z,16.03
2022-10-17T21:08:46.470Z,15.96
2022-10-17T21:11:51.214Z,15.90
2022-10-17T21:14:54.078Z,15.87
2022-10-17T21:17:56.845Z,15.92
2022-10-17T21:21:08.454Z,15.84
2022-10-17T21:24:14.236Z,15.79
2022-10-17T21:27:18.871Z,15.75
2022-10-17T21:30:21.722Z,15.75
2022-10-17T21:33:24.254Z,15.68
2022-10-17T21:36:28.039Z,15.67
2022-10-17T21:39:32.682Z,15.62
2022-10-17T21:42:35.332Z,15.60
2022-10-17T21:45:38.082Z,15.56
2022-10-17T21:48:40.969Z,15.59
2022-10-17T21:51:44.556Z,15.63
2022-10-17T21:54:48.644Z,15.65
2022-10-17T21:57:52.017Z,15.65
2022-10-17T22:00:54.732Z,15.59
2022-10-17T22:03:58.604Z,15.49
2022-10-17T22:07:01.297Z,15.40
2022-10-17T22:10:06.247Z,15.29
2022-10-17T22:13:08.839Z,15.25
2022-10-17T22:16:13.521Z,15.27
2022-10-17T22:19:18.237Z,15.33
2022-10-17T22:22:20.873Z,15.31
2022-10-17T22:25:24.871Z,15.36
2022-10-17T22:28:27.686Z,15.33
2022-10-17T22:31:30.428Z,15.28
2022-10-17T22:34:33.133Z,15.23
2022-10-17T22:37:35.722Z,15.18
2022-10-17T22:40:39.754Z,15.18
2022-10-17T22:43:42.680Z,15.24
2022-10-17T22:46:45.538Z,15.20
2022-10-17T22:49:48.163Z,15.21
2022-10-17T22:52:50.755Z,15.18
2022-10-17T22:55:55.562Z,15.17
2022-10-17T22:58:58.167Z,15.14
2022-10-17T23:02:00.993Z,15.07
2022-10-17T23:05:03.714Z,15.06
2022-10-17T23:08:06.585Z,15.08
2022-10-17T23:11:10.803Z,15.11
2022-10-17T23:14:13.575Z,15.11
2022-10-17T23:17:16.407Z,15.13
2022-10-17T23:20:19.077Z,15.07
2022-10-17T23:23:22.281Z,15.03
2022-10-17T23:26:26.345Z,15.02
2022-10-17T23:29:32.790Z,15.09
2022-10-17T23:32:35.407Z,15.15
2022-10-17T23:35:38.031Z,15.12
2022-10-17T23:38:40.947Z,14.97
2022-10-17T23:41:44.909Z,14.84
2022-10-17T23:44:47.674Z,14.72
2022-10-17T23:47:50.329Z,14.69
2022-10-17T23:50:53.104Z,14.73
2022-10-17T23:53:55.749Z,14.77
2022-10-17T23:56:59.791Z,14.76
